sensor_id;sensor_type;location;lat;lon;timestamp;P1;durP1;ratioP1;P2;durP2;ratioP2
74471;SDS011;62920;53.572;10.050;2022-09-02T00:01:03;3.38;;;0.82;;
74471;SDS011;62920;53.572;10.050;2022-09-02T00:03:38;5.10;;;0.77;;
74471;SDS011;62920;53.572;10.050;2022-09-02T00:06:03;2.17;;;0.70;;
74471;SDS011;62920;53.572;10.050;2022-09-02T00:08:29;3.15;;;0.80;;
74471;SDS011;62920;53.572;10.050;2022-09-02T00:10:58;2.17;;;0.75;;
74471;SDS011;62920;53.572;10.050;2022-09-02T00:13:29;3.92;;;0.70;;
74471;SDS011;62920;53.572;10.050;2022-09-02T00:15:55;3.75;;;0.90;;
74471;SDS011;62920;53.572;10.050;2022-09-02T00:18:20;2.45;;;0.77;;
74471;SDS011;62920;53.572;10.050;2022-09-02T00:20:48;4.20;;;0.60;;
74471;SDS011;62920;53.572;10.050;2022-09-02T00:23:14;2.00;;;0.82;;
74471;SDS011;62920;53.572;10.050;2022-09-02T00:25:40;2.13;;;0.70;;
74471;SDS011;62920;53.572;10.050;2022-09-02T00:28:08;2.22;;;0.80;;
74471;SDS011;62920;53.572;10.050;2022-09-02T00:30:34;3.08;;;0.80;;
74471;SDS011;62920;53.572;10.050;2022-09-02T00:32:59;3.08;;;0.70;;
74471;SDS011;62920;53.572;10.050;2022-09-02T00:37:52;1.50;;;0.55;;
74471;SDS011;62920;53.572;10.050;2022-09-02T00:40:17;3.17;;;0.80;;
74471;SDS011;62920;53.572;10.050;2022-09-02T00:42:43;3.30;;;0.60;;
74471;SDS011;62920;53.572;10.050;2022-09-02T00:45:09;1.92;;;0.73;;
74471;SDS011;62920;53.572;10.050;2022-09-02T00:47:35;1.52;;;0.52;;
74471;SDS011;62920;53.572;10.050;2022-09-02T00:50:03;1.90;;;0.70;;
74471;SDS011;62920;53.572;10.050;2022-09-02T00:52:42;3.55;;;0.70;;
74471;SDS011;62920;53.572;10.050;2022-09-02T00:55:10;1.75;;;0.57;;
74471;SDS011;62920;53.572;10.050;2022-09-02T00:57:40;2.92;;;0.70;;
74471;SDS011;62920;53.572;10.050;2022-09-02T01:00:10;2.78;;;0.80;;
74471;SDS011;62920;53.572;10.050;2022-09-02T01:02:43;1.95;;;0.60;;
74471;SDS011;62920;53.572;10.050;2022-09-02T01:05:13;3.05;;;0.80;;
74471;SDS011;62920;53.572;10.050;2022-09-02T01:07:41;4.70;;;0.80;;
74471;SDS011;62920;53.572;10.050;2022-09-02T01:10:09;1.73;;;0.60;;
74471;SDS011;62920;53.572;10.050;2022-09-02T01:12:38;2.00;;;0.90;;
74471;SDS011;62920;53.572;10.050;2022-09-02T01:15:04;2.85;;;0.80;;
74471;SDS011;62920;53.572;10.050;2022-09-02T01:17:30;2.40;;;0.88;;
74471;SDS011;62920;53.572;10.050;2022-09-02T01:20:00;1.98;;;0.63;;
74471;SDS011;62920;53.572;10.050;2022-09-02T01:22:30;2.22;;;0.70;;
74471;SDS011;62920;53.572;10.050;2022-09-02T01:27:23;1.80;;;0.60;;
74471;SDS011;62920;53.572;10.050;2022-09-02T01:29:50;2.38;;;0.63;;
74471;SDS011;62920;53.572;10.050;2022-09-02T01:32:20;1.90;;;0.80;;
74471;SDS011;62920;53.572;10.050;2022-09-02T01:34:46;2.35;;;0.65;;
74471;SDS011;62920;53.572;10.050;2022-09-02T01:37:11;3.88;;;0.73;;
74471;SDS011;62920;53.572;10.050;2022-09-02T01:39:37;2.58;;;0.90;;
74471;SDS011;62920;53.572;10.050;2022-09-02T01:42:03;1.90;;;0.68;;
74471;SDS011;62920;53.572;10.050;2022-09-02T01:44:28;1.92;;;0.70;;
74471;SDS011;62920;53.572;10.050;2022-09-02T01:46:54;8.07;;;0.85;;
74471;SDS011;62920;53.572;10.050;2022-09-02T01:49:20;3.60;;;0.70;;
74471;SDS011;62920;53.572;10.050;2022-09-02T01:51:46;3.70;;;0.80;;
74471;SDS011;62920;53.572;10.050;2022-09-02T01:54:12;2.92;;;0.80;;
74471;SDS011;62920;53.572;10.050;2022-09-02T01:56:37;2.13;;;0.60;;
74471;SDS011;62920;53.572;10.050;2022-09-02T01:59:03;3.30;;;0.63;;
74471;SDS011;62920;53.572;10.050;2022-09-02T02:01:29;4.28;;;0.82;;
74471;SDS011;62920;53.572;10.050;2022-09-02T02:03:54;3.55;;;0.75;;
74471;SDS011;62920;53.572;10.050;2022-09-02T02:06:19;1.55;;;0.60;;
74471;SDS011;62920;53.572;10.050;2022-09-02T02:08:45;2.30;;;0.70;;
74471;SDS011;62920;53.572;10.050;2022-09-02T02:11:11;4.57;;;0.70;;
74471;SDS011;62920;53.572;10.050;2022-09-02T02:13:42;2.10;;;0.70;;
74471;SDS011;62920;53.572;10.050;2022-09-02T02:16:07;1.95;;;0.70;;
74471;SDS011;62920;53.572;10.050;2022-09-02T02:18:32;2.40;;;0.80;;
74471;SDS011;62920;53.572;10.050;2022-09-02T02:20:58;3.25;;;0.85;;
74471;SDS011;62920;53.572;10.050;2022-09-02T02:23:23;2.88;;;0.70;;
74471;SDS011;62920;53.572;10.050;2022-09-02T02:25:48;2.30;;;0.70;;
74471;SDS011;62920;53.572;10.050;2022-09-02T02:28:14;2.22;;;0.70;;
74471;SDS011;62920;53.572;10.050;2022-09-02T02:30:39;2.10;;;0.85;;
74471;SDS011;62920;53.572;10.050;2022-09-02T02:33:05;1.83;;;0.70;;
74471;SDS011;62920;53.572;10.050;2022-09-02T02:35:30;2.22;;;0.80;;
74471;SDS011;62920;53.572;10.050;2022-09-02T02:37:55;2.35;;;0.80;;
74471;SDS011;62920;53.572;10.050;2022-09-02T02:40:22;2.20;;;0.73;;
74471;SDS011;62920;53.572;10.050;2022-09-02T02:42:49;3.78;;;0.90;;
74471;SDS011;62920;53.572;10.050;2022-09-02T02:45:17;1.38;;;0.50;;
74471;SDS011;62920;53.572;10.050;2022-09-02T02:47:42;2.70;;;0.63;;
74471;SDS011;62920;53.572;10.050;2022-09-02T02:50:11;2.03;;;0.60;;
74471;SDS011;62920;53.572;10.050;2022-09-02T02:52:38;2.05;;;0.80;;
74471;SDS011;62920;53.572;10.050;2022-09-02T02:55:05;2.10;;;0.75;;
74471;SDS011;62920;53.572;10.050;2022-09-02T02:57:32;2.45;;;0.70;;
74471;SDS011;62920;53.572;10.050;2022-09-02T03:00:01;3.00;;;0.77;;
74471;SDS011;62920;53.572;10.050;2022-09-02T03:03:03;1.95;;;0.70;;
74471;SDS011;62920;53.572;10.050;2022-09-02T03:05:31;3.30;;;1.10;;
74471;SDS011;62920;53.572;10.050;2022-09-02T03:07:59;2.13;;;0.80;;
74471;SDS011;62920;53.572;10.050;2022-09-02T03:10:25;3.35;;;0.82;;
74471;SDS011;62920;53.572;10.050;2022-09-02T03:12:51;2.63;;;0.90;;
74471;SDS011;62920;53.572;10.050;2022-09-02T03:15:17;4.07;;;0.80;;
74471;SDS011;62920;53.572;10.050;2022-09-02T03:17:44;3.50;;;0.90;;
74471;SDS011;62920;53.572;10.050;2022-09-02T03:20:10;3.22;;;0.88;;
74471;SDS011;62920;53.572;10.050;2022-09-02T03:22:36;1.83;;;0.70;;
74471;SDS011;62920;53.572;10.050;2022-09-02T03:25:06;2.20;;;0.75;;
74471;SDS011;62920;53.572;10.050;2022-09-02T03:27:32;2.38;;;0.73;;
74471;SDS011;62920;53.572;10.050;2022-09-02T03:30:00;2.38;;;0.80;;
74471;SDS011;62920;53.572;10.050;2022-09-02T03:32:26;3.13;;;0.88;;
74471;SDS011;62920;53.572;10.050;2022-09-02T03:34:52;2.60;;;0.70;;
74471;SDS011;62920;53.572;10.050;2022-09-02T03:37:18;2.40;;;0.73;;
74471;SDS011;62920;53.572;10.050;2022-09-02T03:39:44;3.55;;;0.70;;
74471;SDS011;62920;53.572;10.050;2022-09-02T03:42:09;3.65;;;0.90;;
74471;SDS011;62920;53.572;10.050;2022-09-02T03:44:35;1.92;;;0.82;;
74471;SDS011;62920;53.572;10.050;2022-09-02T03:47:00;3.88;;;1.10;;
74471;SDS011;62920;53.572;10.050;2022-09-02T03:49:26;1.95;;;0.80;;
74471;SDS011;62920;53.572;10.050;2022-09-02T03:51:52;3.88;;;0.80;;
74471;SDS011;62920;53.572;10.050;2022-09-02T03:54:17;2.40;;;0.90;;
74471;SDS011;62920;53.572;10.050;2022-09-02T03:56:43;2.45;;;0.93;;
74471;SDS011;62920;53.572;10.050;2022-09-02T03:59:09;2.55;;;0.80;;
74471;SDS011;62920;53.572;10.050;2022-09-02T04:01:34;2.20;;;0.90;;
74471;SDS011;62920;53.572;10.050;2022-09-02T04:04:00;3.22;;;0.82;;
74471;SDS011;62920;53.572;10.050;2022-09-02T04:06:26;3.22;;;0.82;;
74471;SDS011;62920;53.572;10.050;2022-09-02T04:08:52;2.47;;;0.90;;
74471;SDS011;62920;53.572;10.050;2022-09-02T04:11:18;3.05;;;0.70;;
74471;SDS011;62920;53.572;10.050;2022-09-02T04:13:45;2.13;;;0.75;;
74471;SDS011;62920;53.572;10.050;2022-09-02T04:16:13;2.50;;;0.85;;
74471;SDS011;62920;53.572;10.050;2022-09-02T04:18:40;2.38;;;0.90;;
74471;SDS011;62920;53.572;10.050;2022-09-02T04:21:06;3.30;;;1.08;;
74471;SDS011;62920;53.572;10.050;2022-09-02T04:23:31;2.10;;;0.70;;
74471;SDS011;62920;53.572;10.050;2022-09-02T04:25:57;3.38;;;0.98;;
74471;SDS011;62920;53.572;10.050;2022-09-02T04:28:23;2.60;;;0.98;;
74471;SDS011;62920;53.572;10.050;2022-09-02T04:30:49;2.97;;;1.08;;
74471;SDS011;62920;53.572;10.050;2022-09-02T04:33:15;2.65;;;0.98;;
74471;SDS011;62920;53.572;10.050;2022-09-02T04:35:41;3.63;;;0.98;;
74471;SDS011;62920;53.572;10.050;2022-09-02T04:38:09;3.05;;;1.08;;
74471;SDS011;62920;53.572;10.050;2022-09-02T04:40:34;2.65;;;0.90;;
74471;SDS011;62920;53.572;10.050;2022-09-02T04:43:00;2.70;;;1.00;;
74471;SDS011;62920;53.572;10.050;2022-09-02T04:45:25;2.90;;;1.10;;
74471;SDS011;62920;53.572;10.050;2022-09-02T04:47:51;2.92;;;0.85;;
74471;SDS011;62920;53.572;10.050;2022-09-02T04:50:16;2.90;;;1.15;;
74471;SDS011;62920;53.572;10.050;2022-09-02T04:52:42;3.13;;;1.08;;
74471;SDS011;62920;53.572;10.050;2022-09-02T04:55:08;4.00;;;0.90;;
74471;SDS011;62920;53.572;10.050;2022-09-02T04:57:34;7.45;;;1.38;;
74471;SDS011;62920;53.572;10.050;2022-09-02T04:59:59;2.40;;;0.93;;
74471;SDS011;62920;53.572;10.050;2022-09-02T05:02:26;3.95;;;0.90;;
74471;SDS011;62920;53.572;10.050;2022-09-02T05:04:51;3.08;;;1.25;;
74471;SDS011;62920;53.572;10.050;2022-09-02T05:07:16;4.55;;;1.08;;
74471;SDS011;62920;53.572;10.050;2022-09-02T05:09:42;2.55;;;1.10;;
74471;SDS011;62920;53.572;10.050;2022-09-02T05:12:08;4.53;;;1.10;;
74471;SDS011;62920;53.572;10.050;2022-09-02T05:14:33;4.20;;;1.80;;
74471;SDS011;62920;53.572;10.050;2022-09-02T05:16:59;2.90;;;1.20;;
74471;SDS011;62920;53.572;10.050;2022-09-02T05:19:25;3.22;;;1.10;;
74471;SDS011;62920;53.572;10.050;2022-09-02T05:21:51;2.38;;;0.98;;
74471;SDS011;62920;53.572;10.050;2022-09-02T05:24:19;3.67;;;1.38;;
74471;SDS011;62920;53.572;10.050;2022-09-02T05:26:44;2.97;;;1.08;;
74471;SDS011;62920;53.572;10.050;2022-09-02T05:29:10;3.38;;;0.98;;
74471;SDS011;62920;53.572;10.050;2022-09-02T05:31:37;5.30;;;0.90;;
74471;SDS011;62920;53.572;10.050;2022-09-02T05:34:04;2.75;;;1.10;;
74471;SDS011;62920;53.572;10.050;2022-09-02T05:36:30;3.85;;;1.20;;
74471;SDS011;62920;53.572;10.050;2022-09-02T05:38:57;3.85;;;1.00;;
74471;SDS011;62920;53.572;10.050;2022-09-02T05:41:23;3.17;;;1.20;;
74471;SDS011;62920;53.572;10.050;2022-09-02T05:43:53;4.70;;;1.10;;
74471;SDS011;62920;53.572;10.050;2022-09-02T05:46:21;4.70;;;1.20;;
74471;SDS011;62920;53.572;10.050;2022-09-02T05:48:48;3.35;;;1.08;;
74471;SDS011;62920;53.572;10.050;2022-09-02T05:51:45;3.17;;;0.90;;
74471;SDS011;62920;53.572;10.050;2022-09-02T05:54:33;4.65;;;1.05;;
74471;SDS011;62920;53.572;10.050;2022-09-02T05:57:00;9.00;;;1.30;;
74471;SDS011;62920;53.572;10.050;2022-09-02T05:59:29;3.55;;;1.27;;
74471;SDS011;62920;53.572;10.050;2022-09-02T06:01:56;2.63;;;0.90;;
74471;SDS011;62920;53.572;10.050;2022-09-02T06:04:22;2.85;;;1.13;;
74471;SDS011;62920;53.572;10.050;2022-09-02T06:06:48;2.92;;;1.00;;
74471;SDS011;62920;53.572;10.050;2022-09-02T06:09:15;3.50;;;1.25;;
74471;SDS011;62920;53.572;10.050;2022-09-02T06:11:42;2.83;;;1.00;;
74471;SDS011;62920;53.572;10.050;2022-09-02T06:14:14;2.65;;;1.00;;
74471;SDS011;62920;53.572;10.050;2022-09-02T06:16:41;2.38;;;0.90;;
74471;SDS011;62920;53.572;10.050;2022-09-02T06:19:07;5.28;;;0.95;;
74471;SDS011;62920;53.572;10.050;2022-09-02T06:21:34;2.88;;;1.10;;
74471;SDS011;62920;53.572;10.050;2022-09-02T06:24:00;3.78;;;1.00;;
74471;SDS011;62920;53.572;10.050;2022-09-02T06:26:26;4.85;;;0.93;;
74471;SDS011;62920;53.572;10.050;2022-09-02T06:28:51;4.18;;;1.05;;
74471;SDS011;62920;53.572;10.050;2022-09-02T06:31:17;2.63;;;0.82;;
74471;SDS011;62920;53.572;10.050;2022-09-02T06:33:45;2.28;;;0.85;;
74471;SDS011;62920;53.572;10.050;2022-09-02T06:36:13;5.03;;;0.95;;
74471;SDS011;62920;53.572;10.050;2022-09-02T06:38:42;2.97;;;1.00;;
74471;SDS011;62920;53.572;10.050;2022-09-02T06:41:12;2.42;;;0.88;;
74471;SDS011;62920;53.572;10.050;2022-09-02T06:43:39;2.15;;;0.90;;
74471;SDS011;62920;53.572;10.050;2022-09-02T06:46:05;4.43;;;0.95;;
74471;SDS011;62920;53.572;10.050;2022-09-02T06:48:30;3.95;;;1.10;;
74471;SDS011;62920;53.572;10.050;2022-09-02T06:50:56;3.25;;;0.95;;
74471;SDS011;62920;53.572;10.050;2022-09-02T06:53:21;2.28;;;0.80;;
74471;SDS011;62920;53.572;10.050;2022-09-02T06:58:14;2.70;;;0.75;;
74471;SDS011;62920;53.572;10.050;2022-09-02T07:00:40;2.45;;;0.65;;
74471;SDS011;62920;53.572;10.050;2022-09-02T07:03:06;2.25;;;0.70;;
74471;SDS011;62920;53.572;10.050;2022-09-02T07:06:08;3.20;;;0.70;;
74471;SDS011;62920;53.572;10.050;2022-09-02T07:08:39;2.13;;;0.70;;
74471;SDS011;62920;53.572;10.050;2022-09-02T07:11:07;2.17;;;0.60;;
74471;SDS011;62920;53.572;10.050;2022-09-02T07:13:39;3.28;;;0.90;;
74471;SDS011;62920;53.572;10.050;2022-09-02T07:16:04;3.78;;;0.82;;
74471;SDS011;62920;53.572;10.050;2022-09-02T07:18:31;2.22;;;0.68;;
74471;SDS011;62920;53.572;10.050;2022-09-02T07:20:58;1.95;;;0.70;;
74471;SDS011;62920;53.572;10.050;2022-09-02T07:23:23;2.80;;;0.70;;
74471;SDS011;62920;53.572;10.050;2022-09-02T07:25:49;4.13;;;0.80;;
74471;SDS011;62920;53.572;10.050;2022-09-02T07:28:14;1.85;;;0.60;;
74471;SDS011;62920;53.572;10.050;2022-09-02T07:30:41;2.88;;;0.80;;
74471;SDS011;62920;53.572;10.050;2022-09-02T07:33:07;4.00;;;0.70;;
74471;SDS011;62920;53.572;10.050;2022-09-02T07:35:33;2.65;;;0.85;;
74471;SDS011;62920;53.572;10.050;2022-09-02T07:38:00;2.15;;;0.63;;
74471;SDS011;62920;53.572;10.050;2022-09-02T07:40:28;2.17;;;0.90;;
74471;SDS011;62920;53.572;10.050;2022-09-02T07:42:54;1.83;;;0.70;;
74471;SDS011;62920;53.572;10.050;2022-09-02T07:45:19;3.50;;;0.70;;
74471;SDS011;62920;53.572;10.050;2022-09-02T07:47:45;3.88;;;0.70;;
74471;SDS011;62920;53.572;10.050;2022-09-02T07:50:10;2.85;;;0.63;;
74471;SDS011;62920;53.572;10.050;2022-09-02T07:55:03;1.85;;;0.57;;
74471;SDS011;62920;53.572;10.050;2022-09-02T07:57:29;2.38;;;0.60;;
74471;SDS011;62920;53.572;10.050;2022-09-02T07:59:55;4.32;;;0.50;;
74471;SDS011;62920;53.572;10.050;2022-09-02T08:02:21;2.13;;;0.57;;
74471;SDS011;62920;53.572;10.050;2022-09-02T08:04:46;5.30;;;1.35;;
74471;SDS011;62920;53.572;10.050;2022-09-02T08:07:12;3.60;;;0.55;;
74471;SDS011;62920;53.572;10.050;2022-09-02T08:09:37;1.95;;;0.60;;
74471;SDS011;62920;53.572;10.050;2022-09-02T08:12:03;2.65;;;0.50;;
74471;SDS011;62920;53.572;10.050;2022-09-02T08:14:29;1.85;;;0.60;;
74471;SDS011;62920;53.572;10.050;2022-09-02T08:16:56;2.30;;;0.60;;
74471;SDS011;62920;53.572;10.050;2022-09-02T08:19:22;2.00;;;0.52;;
74471;SDS011;62920;53.572;10.050;2022-09-02T08:21:48;2.40;;;0.50;;
74471;SDS011;62920;53.572;10.050;2022-09-02T08:24:14;1.65;;;0.60;;
74471;SDS011;62920;53.572;10.050;2022-09-02T08:26:39;1.98;;;0.40;;
74471;SDS011;62920;53.572;10.050;2022-09-02T08:29:05;2.72;;;0.60;;
74471;SDS011;62920;53.572;10.050;2022-09-02T08:31:32;1.65;;;0.60;;
74471;SDS011;62920;53.572;10.050;2022-09-02T08:33:58;3.92;;;0.70;;
74471;SDS011;62920;53.572;10.050;2022-09-02T08:36:23;2.88;;;0.70;;
74471;SDS011;62920;53.572;10.050;2022-09-02T08:38:50;2.75;;;0.60;;
74471;SDS011;62920;53.572;10.050;2022-09-02T08:41:25;2.13;;;0.50;;
74471;SDS011;62920;53.572;10.050;2022-09-02T08:43:57;3.05;;;0.50;;
74471;SDS011;62920;53.572;10.050;2022-09-02T08:46:25;1.92;;;0.60;;
74471;SDS011;62920;53.572;10.050;2022-09-02T08:49:13;1.25;;;0.50;;
74471;SDS011;62920;53.572;10.050;2022-09-02T08:51:43;1.73;;;0.60;;
74471;SDS011;62920;53.572;10.050;2022-09-02T08:57:06;2.72;;;0.70;;
74471;SDS011;62920;53.572;10.050;2022-09-02T08:59:33;1.83;;;0.60;;
74471;SDS011;62920;53.572;10.050;2022-09-02T09:10:14;3.50;;;0.70;;
74471;SDS011;62920;53.572;10.050;2022-09-02T09:21:21;2.65;;;0.65;;
74471;SDS011;62920;53.572;10.050;2022-09-02T09:23:48;1.88;;;0.70;;
74471;SDS011;62920;53.572;10.050;2022-09-02T09:26:19;3.22;;;0.52;;
74471;SDS011;62920;53.572;10.050;2022-09-02T09:28:52;4.25;;;0.70;;
74471;SDS011;62920;53.572;10.050;2022-09-02T09:31:20;2.55;;;0.60;;
74471;SDS011;62920;53.572;10.050;2022-09-02T09:33:56;4.18;;;0.70;;
74471;SDS011;62920;53.572;10.050;2022-09-02T09:39:17;2.40;;;0.75;;
74471;SDS011;62920;53.572;10.050;2022-09-02T09:41:46;5.40;;;0.80;;
74471;SDS011;62920;53.572;10.050;2022-09-02T09:47:06;3.20;;;0.68;;
74471;SDS011;62920;53.572;10.050;2022-09-02T09:49:34;2.10;;;0.80;;
74471;SDS011;62920;53.572;10.050;2022-09-02T09:51:59;3.30;;;0.70;;
74471;SDS011;62920;53.572;10.050;2022-09-02T09:54:26;3.20;;;0.70;;
74471;SDS011;62920;53.572;10.050;2022-09-02T09:56:52;2.88;;;0.70;;
74471;SDS011;62920;53.572;10.050;2022-09-02T10:02:32;3.03;;;0.60;;
74471;SDS011;62920;53.572;10.050;2022-09-02T10:05:10;2.38;;;0.50;;
74471;SDS011;62920;53.572;10.050;2022-09-02T10:07:55;4.68;;;0.80;;
74471;SDS011;62920;53.572;10.050;2022-09-02T10:10:24;7.85;;;3.10;;
74471;SDS011;62920;53.572;10.050;2022-09-02T10:12:52;5.97;;;1.40;;
74471;SDS011;62920;53.572;10.050;2022-09-02T10:15:42;4.10;;;1.27;;
74471;SDS011;62920;53.572;10.050;2022-09-02T10:20:56;3.38;;;0.82;;
74471;SDS011;62920;53.572;10.050;2022-09-02T10:28:57;2.03;;;0.60;;
74471;SDS011;62920;53.572;10.050;2022-09-02T10:31:36;7.25;;;0.70;;
74471;SDS011;62920;53.572;10.050;2022-09-02T10:47:39;3.22;;;1.10;;
74471;SDS011;62920;53.572;10.050;2022-09-02T10:55:58;2.55;;;0.70;;
74471;SDS011;62920;53.572;10.050;2022-09-02T10:58:40;1.83;;;0.70;;
74471;SDS011;62920;53.572;10.050;2022-09-02T11:02:13;3.47;;;0.80;;
74471;SDS011;62920;53.572;10.050;2022-09-02T11:04:09;5.85;;;0.70;;
74471;SDS011;62920;53.572;10.050;2022-09-02T11:06:38;2.88;;;1.00;;
74471;SDS011;62920;53.572;10.050;2022-09-02T11:09:29;2.17;;;0.60;;
74471;SDS011;62920;53.572;10.050;2022-09-02T11:11:57;2.78;;;0.70;;
74471;SDS011;62920;53.572;10.050;2022-09-02T11:14:32;1.88;;;0.63;;
74471;SDS011;62920;53.572;10.050;2022-09-02T11:22:22;5.97;;;0.63;;
74471;SDS011;62920;53.572;10.050;2022-09-02T11:24:54;2.40;;;0.70;;
74471;SDS011;62920;53.572;10.050;2022-09-02T11:30:17;3.00;;;0.70;;
74471;SDS011;62920;53.572;10.050;2022-09-02T11:35:35;3.60;;;0.60;;
74471;SDS011;62920;53.572;10.050;2022-09-02T11:38:04;1.75;;;0.50;;
74471;SDS011;62920;53.572;10.050;2022-09-02T11:40:44;3.45;;;0.70;;
74471;SDS011;62920;53.572;10.050;2022-09-02T11:43:30;2.10;;;0.70;;
74471;SDS011;62920;53.572;10.050;2022-09-02T11:54:25;2.95;;;0.63;;
74471;SDS011;62920;53.572;10.050;2022-09-02T11:56:57;8.13;;;0.70;;
74471;SDS011;62920;53.572;10.050;2022-09-02T12:07:59;3.83;;;0.70;;
74471;SDS011;62920;53.572;10.050;2022-09-02T12:16:34;1.75;;;0.50;;
74471;SDS011;62920;53.572;10.050;2022-09-02T12:21:31;2.22;;;0.70;;
74471;SDS011;62920;53.572;10.050;2022-09-02T12:26:23;5.50;;;0.70;;
74471;SDS011;62920;53.572;10.050;2022-09-02T12:31:50;1.90;;;0.60;;
74471;SDS011;62920;53.572;10.050;2022-09-02T12:58:51;2.05;;;0.70;;
74471;SDS011;62920;53.572;10.050;2022-09-02T13:01:23;2.38;;;0.90;;
74471;SDS011;62920;53.572;10.050;2022-09-02T13:04:17;3.05;;;0.70;;
74471;SDS011;62920;53.572;10.050;2022-09-02T13:12:39;2.55;;;0.70;;
74471;SDS011;62920;53.572;10.050;2022-09-02T13:20:46;1.73;;;0.65;;
74471;SDS011;62920;53.572;10.050;2022-09-02T13:23:41;3.65;;;0.70;;
74471;SDS011;62920;53.572;10.050;2022-09-02T13:26:22;4.35;;;0.82;;
74471;SDS011;62920;53.572;10.050;2022-09-02T13:34:44;4.07;;;0.68;;
74471;SDS011;62920;53.572;10.050;2022-09-02T13:39:59;2.05;;;0.80;;
74471;SDS011;62920;53.572;10.050;2022-09-02T13:42:28;2.50;;;0.80;;
74471;SDS011;62920;53.572;10.050;2022-09-02T13:45:07;2.00;;;0.63;;
74471;SDS011;62920;53.572;10.050;2022-09-02T13:47:42;1.90;;;0.65;;
74471;SDS011;62920;53.572;10.050;2022-09-02T13:50:09;3.85;;;0.70;;
74471;SDS011;62920;53.572;10.050;2022-09-02T13:52:36;2.10;;;0.75;;
74471;SDS011;62920;53.572;10.050;2022-09-02T13:55:02;3.00;;;0.65;;
74471;SDS011;62920;53.572;10.050;2022-09-02T13:57:28;2.70;;;0.60;;
74471;SDS011;62920;53.572;10.050;2022-09-02T13:59:55;2.05;;;0.65;;
74471;SDS011;62920;53.572;10.050;2022-09-02T14:04:57;4.47;;;0.60;;
74471;SDS011;62920;53.572;10.050;2022-09-02T14:07:25;2.10;;;0.80;;
74471;SDS011;62920;53.572;10.050;2022-09-02T14:09:54;2.13;;;0.80;;
74471;SDS011;62920;53.572;10.050;2022-09-02T14:12:22;3.65;;;0.98;;
74471;SDS011;62920;53.572;10.050;2022-09-02T14:14:48;3.25;;;0.80;;
74471;SDS011;62920;53.572;10.050;2022-09-02T14:17:31;3.28;;;0.70;;
74471;SDS011;62920;53.572;10.050;2022-09-02T14:20:13;4.45;;;0.80;;
74471;SDS011;62920;53.572;10.050;2022-09-02T14:22:42;2.03;;;0.68;;
74471;SDS011;62920;53.572;10.050;2022-09-02T14:25:12;3.80;;;0.82;;
74471;SDS011;62920;53.572;10.050;2022-09-02T14:27:39;2.58;;;0.80;;
74471;SDS011;62920;53.572;10.050;2022-09-02T14:30:28;3.85;;;0.73;;
74471;SDS011;62920;53.572;10.050;2022-09-02T14:36:00;3.72;;;1.00;;
74471;SDS011;62920;53.572;10.050;2022-09-02T14:38:28;3.38;;;0.70;;
74471;SDS011;62920;53.572;10.050;2022-09-02T14:44:27;2.17;;;0.70;;
74471;SDS011;62920;53.572;10.050;2022-09-02T14:46:52;1.90;;;0.68;;
74471;SDS011;62920;53.572;10.050;2022-09-02T14:51:46;2.40;;;0.73;;
74471;SDS011;62920;53.572;10.050;2022-09-02T14:54:32;2.30;;;0.70;;
74471;SDS011;62920;53.572;10.050;2022-09-02T14:57:04;2.15;;;0.63;;
74471;SDS011;62920;53.572;10.050;2022-09-02T14:59:30;2.95;;;0.70;;
74471;SDS011;62920;53.572;10.050;2022-09-02T15:01:55;7.88;;;0.73;;
74471;SDS011;62920;53.572;10.050;2022-09-02T15:06:47;3.65;;;0.70;;
74471;SDS011;62920;53.572;10.050;2022-09-02T15:09:13;2.33;;;0.77;;
74471;SDS011;62920;53.572;10.050;2022-09-02T15:11:40;2.55;;;0.77;;
74471;SDS011;62920;53.572;10.050;2022-09-02T15:14:10;4.15;;;1.08;;
74471;SDS011;62920;53.572;10.050;2022-09-02T15:16:36;4.47;;;0.93;;
74471;SDS011;62920;53.572;10.050;2022-09-02T15:19:02;3.00;;;0.80;;
74471;SDS011;62920;53.572;10.050;2022-09-02T15:21:28;3.97;;;0.90;;
74471;SDS011;62920;53.572;10.050;2022-09-02T15:23:54;4.60;;;1.02;;
74471;SDS011;62920;53.572;10.050;2022-09-02T15:26:19;5.07;;;0.95;;
74471;SDS011;62920;53.572;10.050;2022-09-02T15:28:45;3.05;;;0.80;;
74471;SDS011;62920;53.572;10.050;2022-09-02T15:31:10;3.15;;;1.00;;
74471;SDS011;62920;53.572;10.050;2022-09-02T15:33:36;5.30;;;0.95;;
74471;SDS011;62920;53.572;10.050;2022-09-02T15:36:05;4.15;;;1.30;;
74471;SDS011;62920;53.572;10.050;2022-09-02T15:38:32;3.63;;;1.10;;
74471;SDS011;62920;53.572;10.050;2022-09-02T15:41:08;2.20;;;0.90;;
74471;SDS011;62920;53.572;10.050;2022-09-02T15:43:56;2.45;;;0.90;;
74471;SDS011;62920;53.572;10.050;2022-09-02T15:46:24;2.45;;;0.90;;
74471;SDS011;62920;53.572;10.050;2022-09-02T15:48:51;3.15;;;0.90;;
74471;SDS011;62920;53.572;10.050;2022-09-02T15:51:18;2.33;;;0.82;;
74471;SDS011;62920;53.572;10.050;2022-09-02T15:53:45;2.00;;;0.63;;
74471;SDS011;62920;53.572;10.050;2022-09-02T15:56:20;2.13;;;0.70;;
74471;SDS011;62920;53.572;10.050;2022-09-02T15:58:46;2.67;;;0.80;;
74471;SDS011;62920;53.572;10.050;2022-09-02T16:01:12;1.83;;;0.63;;
74471;SDS011;62920;53.572;10.050;2022-09-02T16:03:38;2.10;;;0.55;;
74471;SDS011;62920;53.572;10.050;2022-09-02T16:06:04;4.07;;;0.80;;
74471;SDS011;62920;53.572;10.050;2022-09-02T16:08:32;5.85;;;1.00;;
74471;SDS011;62920;53.572;10.050;2022-09-02T16:11:01;3.05;;;1.00;;
74471;SDS011;62920;53.572;10.050;2022-09-02T16:13:28;2.60;;;0.88;;
74471;SDS011;62920;53.572;10.050;2022-09-02T16:16:04;4.78;;;0.70;;
74471;SDS011;62920;53.572;10.050;2022-09-02T16:18:34;5.18;;;1.00;;
74471;SDS011;62920;53.572;10.050;2022-09-02T16:21:00;2.67;;;0.57;;
74471;SDS011;62920;53.572;10.050;2022-09-02T16:23:26;2.72;;;0.88;;
74471;SDS011;62920;53.572;10.050;2022-09-02T16:26:05;3.45;;;0.95;;
74471;SDS011;62920;53.572;10.050;2022-09-02T16:28:35;2.08;;;0.65;;
74471;SDS011;62920;53.572;10.050;2022-09-02T16:31:05;3.35;;;0.90;;
74471;SDS011;62920;53.572;10.050;2022-09-02T16:33:31;4.82;;;1.20;;
74471;SDS011;62920;53.572;10.050;2022-09-02T16:35:57;2.42;;;1.02;;
74471;SDS011;62920;53.572;10.050;2022-09-02T16:38:22;5.78;;;0.95;;
74471;SDS011;62920;53.572;10.050;2022-09-02T16:40:48;3.95;;;0.75;;
74471;SDS011;62920;53.572;10.050;2022-09-02T16:43:15;8.70;;;1.38;;
74471;SDS011;62920;53.572;10.050;2022-09-02T16:45:40;3.70;;;1.20;;
74471;SDS011;62920;53.572;10.050;2022-09-02T16:48:06;3.45;;;0.90;;
74471;SDS011;62920;53.572;10.050;2022-09-02T16:50:31;7.88;;;1.27;;
74471;SDS011;62920;53.572;10.050;2022-09-02T16:52:56;2.40;;;0.80;;
74471;SDS011;62920;53.572;10.050;2022-09-02T16:55:22;2.58;;;0.93;;
74471;SDS011;62920;53.572;10.050;2022-09-02T16:57:47;2.40;;;0.82;;
74471;SDS011;62920;53.572;10.050;2022-09-02T17:00:13;7.70;;;1.00;;
74471;SDS011;62920;53.572;10.050;2022-09-02T17:05:04;3.00;;;1.02;;
74471;SDS011;62920;53.572;10.050;2022-09-02T17:07:31;5.25;;;0.80;;
74471;SDS011;62920;53.572;10.050;2022-09-02T17:09:57;3.10;;;0.80;;
74471;SDS011;62920;53.572;10.050;2022-09-02T17:12:22;4.80;;;1.20;;
74471;SDS011;62920;53.572;10.050;2022-09-02T17:14:48;4.97;;;1.20;;
74471;SDS011;62920;53.572;10.050;2022-09-02T17:17:13;3.92;;;1.33;;
74471;SDS011;62920;53.572;10.050;2022-09-02T17:19:41;3.13;;;1.20;;
74471;SDS011;62920;53.572;10.050;2022-09-02T17:22:06;3.80;;;1.20;;
74471;SDS011;62920;53.572;10.050;2022-09-02T17:24:31;4.78;;;1.98;;
74471;SDS011;62920;53.572;10.050;2022-09-02T17:26:57;9.10;;;3.10;;
74471;SDS011;62920;53.572;10.050;2022-09-02T17:29:24;6.22;;;2.70;;